Have a Safe July 4th! 

Flight Track Log - Related Links

Times and Time Zones

All times are in EDT time to prevent confusion due to time zone crossing. See the UAL4295 flight status page for this flight to view local times or setup timezone preferences in your user account.

Time Position Orientation Groundspeed Altitude Reporting Facility
EDT Latitude Longitude Course Direction KTS MPH feet Rate Location/Type
Sat 04:16:40 PM 38.9286 -77.1233 62° Northeast 240 276 3,500  Level Washington Center
Sat 04:16:55 PM 38.9500 -77.1333 340° North 247 284 4,400 2,529 Climbing Potomac TRACON
Sat 04:18:00 PM 38.9621 -76.7259 57° Northeast  Level FlightAware Approximate
Sat 04:18:41 PM 39.0208 -77.0772 32° Northeast 232 267 8,600  Level Washington Center
Sat 04:19:00 PM 38.9851 -76.6447 67° East  Level FlightAware Approximate
Sat 04:19:39 PM 39.0367 -76.9786 78° East 241 277 10,500  Level Washington Center
Sat 04:20:00 PM 39.0120 -76.5639 67° East  Level FlightAware Approximate
Sat 04:20:41 PM 39.0547 -76.8667 78° East 271 312 11,200  Level Washington Center
Sat 04:21:00 PM 39.0434 -76.4859 62° Northeast  Level FlightAware Approximate
Sat 04:21:41 PM 39.0706 -76.7467 80° East 313 360 13,500  Level Washington Center
Sat 04:22:41 PM 39.0881 -76.6292 79° East 335 386 15,200 1,119 Climbing Washington Center
Sat 04:23:39 PM 39.1100 -76.5036 77° East 340 391 15,700 857 Climbing Washington Center
Sat 04:24:40 PM 39.1297 -76.3675 79° East 360 414 16,900 639 Climbing Washington Center
Sat 04:25:41 PM 39.1472 -76.2286 81° East 375 432 17,000 50 Climbing Washington Center
Sat 04:26:40 PM 39.1686 -76.0950 78° East 400 460 17,000  Level Washington Center
Sat 04:27:41 PM 39.2108 -75.9614 68° East 408 470 17,000  Level Washington Center
Sat 04:28:39 PM 39.2986 -75.8758 37° Northeast 393 452 17,000  Level Washington Center
Sat 04:29:40 PM 39.3906 -75.7931 35° Northeast 388 447 17,000  Level Washington Center
Sat 04:30:41 PM 39.4803 -75.7125 35° Northeast 388 447 17,000  Level Washington Center
Sat 04:31:41 PM 39.5697 -75.6292 36° Northeast 388 447 17,000  Level Washington Center
Sat 04:32:41 PM 39.6594 -75.5458 36° Northeast 393 452 17,000  Level Washington Center
Sat 04:33:39 PM 39.7489 -75.4619 36° Northeast 393 452 17,000  Level Washington Center
Sat 04:34:39 PM 39.8406 -75.3808 34° Northeast 398 458 17,000 -397 Level Washington Center
Sat 04:35:40 PM 39.9319 -75.2967 35° Northeast 403 464 16,200 -1,967 Descending Washington Center
Sat 04:36:41 PM 40.0108 -75.2042 42° Northeast 398 458 13,000 -2,479 Descending Washington Center
Sat 04:37:41 PM 40.0917 -75.1089 42° Northeast 376 433 11,200 -1,333 Descending Washington Center
Sat 04:38:11 PM 40.1333 -75.0667 38° Northeast 308 354 11,000 -791 Descending New York TRACON
Sat 04:39:12 PM 40.1833 -75.0000 46° Northeast 270 311 10,000 -1,300 Descending New York TRACON
Sat 04:40:11 PM 40.2333 -74.9333 45° Northeast 264 304 8,400 -1,000 Descending New York TRACON
Sat 04:41:12 PM 40.2833 -74.8667 45° Northeast 251 289 8,000 -333 Descending New York TRACON
Sat 04:42:17 PM 40.3333 -74.8000 45° Northeast 255 293 7,700 -700 Descending New York TRACON
Sat 04:43:12 PM 40.3833 -74.7333 45° Northeast 262 302 6,600 -1,148 Descending New York TRACON
Sat 04:44:12 PM 40.4333 -74.6833 37° Northeast 259 298 5,500 -1,000 Descending New York TRACON
Sat 04:45:12 PM 40.5000 -74.6333 30° Northeast 255 293 4,600 -900 Descending New York TRACON
Sat 04:46:12 PM 40.5667 -74.5833 30° Northeast 254 292 3,700 -800 Descending New York TRACON
Sat 04:47:12 PM 40.6167 -74.5333 37° Northeast 247 284 3,000 -300 Descending New York TRACON
Sat 04:48:12 PM 40.6500 -74.4667 57° Northeast 233 268 3,100 -100 Climbing New York TRACON
Sat 04:49:12 PM 40.7000 -74.4167 37° Northeast 191 220 2,800 -300 Descending New York TRACON

Login

Don't have an account? Register now (free) for customized features, flight alerts, and more!